createdAt,value
2017-09-10T00:00:24.115Z,11.30
2017-09-10T00:02:52.383Z,11.20
2017-09-10T00:05:20.670Z,11.20
2017-09-10T00:07:48.956Z,11.30
2017-09-10T00:10:16.426Z,11.20
2017-09-10T00:12:43.950Z,11.20
2017-09-10T00:15:11.421Z,11.30
2017-09-10T00:17:39.679Z,11.20
2017-09-10T00:20:07.161Z,11.20
2017-09-10T00:22:35.422Z,11.20
2017-09-10T00:25:03.661Z,11.20
2017-09-10T00:27:31.139Z,11.20
2017-09-10T00:29:58.649Z,11.20
2017-09-10T00:32:26.120Z,11.20
2017-09-10T00:34:53.580Z,11.20
2017-09-10T00:37:21.076Z,11.20
2017-09-10T00:39:48.535Z,11.30
2017-09-10T00:42:16.045Z,11.20
2017-09-10T00:44:43.524Z,11.10
2017-09-10T00:47:11.015Z,11.20
2017-09-10T00:49:39.242Z,11.30
2017-09-10T00:52:06.760Z,11.20
2017-09-10T00:54:34.999Z,11.30
2017-09-10T00:57:02.507Z,11.20
2017-09-10T00:59:30.778Z,11.30
2017-09-10T01:01:59.040Z,11.20
2017-09-10T01:04:26.510Z,11.20
2017-09-10T01:06:54.796Z,11.10
2017-09-10T01:09:23.035Z,11.10
2017-09-10T01:11:50.515Z,11.00
2017-09-10T01:14:18.771Z,11.10
2017-09-10T01:16:46.239Z,11.10
2017-09-10T01:19:13.729Z,11.10
2017-09-10T01:21:41.195Z,11.10
2017-09-10T01:24:08.732Z,11.10
2017-09-10T01:26:36.972Z,11.20
2017-09-10T01:29:04.446Z,11.20
2017-09-10T01:31:31.946Z,11.30
2017-09-10T01:33:59.420Z,11.20
2017-09-10T01:36:26.904Z,11.20
2017-09-10T01:38:54.406Z,11.20
2017-09-10T01:41:22.679Z,11.10
2017-09-10T01:43:50.181Z,11.10
2017-09-10T01:46:17.672Z,11.10
2017-09-10T01:48:45.167Z,11.10
2017-09-10T01:51:12.659Z,11.00
2017-09-10T01:53:40.139Z,11.10
2017-09-10T01:56:07.630Z,11.10
2017-09-10T01:58:35.897Z,11.10
2017-09-10T02:01:03.407Z,11.10
2017-09-10T02:03:30.951Z,11.10
2017-09-10T02:05:58.430Z,11.10
2017-09-10T02:08:25.908Z,11.20
2017-09-10T02:10:53.411Z,11.20
2017-09-10T02:13:21.655Z,11.00
2017-09-10T02:15:49.128Z,11.00
2017-09-10T02:18:17.391Z,11.10
2017-09-10T02:20:44.900Z,11.00
2017-09-10T02:23:12.395Z,11.00
2017-09-10T02:25:40.647Z,11.00
2017-09-10T02:28:08.102Z,11.10
2017-09-10T02:30:35.600Z,11.10
2017-09-10T02:33:03.054Z,11.00
2017-09-10T02:35:30.592Z,11.00
2017-09-10T02:37:58.051Z,11.00
2017-09-10T02:40:25.575Z,11.00
2017-09-10T02:42:53.804Z,11.00
2017-09-10T02:45:21.294Z,11.00
2017-09-10T02:47:49.560Z,11.00
2017-09-10T02:50:17.796Z,11.00
2017-09-10T02:52:45.255Z,11.00
2017-09-10T02:55:12.755Z,11.10
2017-09-10T02:57:40.987Z,11.00
2017-09-10T03:00:09.279Z,11.00
2017-09-10T03:02:36.762Z,11.00
2017-09-10T03:05:04.264Z,11.00
2017-09-10T03:07:31.743Z,11.00
2017-09-10T03:09:59.328Z,10.90
2017-09-10T03:12:26.841Z,10.90
2017-09-10T03:14:54.323Z,11.00
2017-09-10T03:17:21.859Z,11.00
2017-09-10T03:19:49.340Z,10.90
2017-09-10T03:22:16.839Z,11.00
2017-09-10T03:24:44.326Z,11.00
2017-09-10T03:27:11.797Z,11.00
2017-09-10T03:29:39.290Z,11.00
2017-09-10T03:32:06.767Z,11.00
2017-09-10T03:34:34.268Z,11.00
2017-09-10T03:37:01.740Z,11.00
2017-09-10T03:39:29.203Z,11.00
2017-09-10T03:41:56.692Z,11.00
2017-09-10T03:44:24.151Z,11.10
2017-09-10T03:46:51.658Z,11.10
2017-09-10T03:49:19.134Z,11.00
2017-09-10T03:51:46.653Z,11.10
2017-09-10T03:54:14.923Z,10.90
2017-09-10T03:56:43.167Z,11.00
2017-09-10T03:59:10.641Z,10.90
2017-09-10T04:01:38.172Z,11.00
2017-09-10T04:04:05.667Z,11.00
2017-09-10T04:06:33.176Z,10.90
2017-09-10T04:09:00.667Z,11.00
2017-09-10T04:11:28.139Z,11.10
2017-09-10T04:13:55.630Z,11.00
2017-09-10T04:16:23.859Z,11.00
2017-09-10T04:18:51.360Z,11.00
2017-09-10T04:21:19.628Z,11.10
2017-09-10T04:23:47.869Z,11.10
2017-09-10T04:26:15.370Z,11.00
2017-09-10T04:28:42.849Z,11.00
2017-09-10T04:31:10.329Z,11.00
2017-09-10T04:33:37.812Z,11.00
2017-09-10T04:36:05.289Z,11.00
2017-09-10T04:38:33.542Z,11.10
2017-09-10T04:41:01.016Z,11.00
2017-09-10T04:43:28.503Z,11.10
2017-09-10T06:07:58.854Z,11.00
2017-09-10T06:10:26.422Z,11.10
2017-09-10T06:12:53.920Z,11.10
2017-09-10T06:15:22.203Z,11.10
2017-09-10T06:17:49.708Z,11.10
2017-09-10T06:20:17.186Z,11.10
2017-09-10T06:22:44.720Z,11.10
2017-09-10T06:25:12.183Z,11.10
2017-09-10T06:27:39.662Z,11.10
2017-09-10T06:30:07.159Z,11.10
2017-09-10T06:32:34.678Z,11.10
2017-09-10T06:35:02.184Z,11.10
2017-09-10T06:37:29.664Z,11.20
2017-09-10T06:39:57.180Z,11.20
2017-09-10T06:42:25.444Z,11.00
2017-09-10T06:44:53.674Z,11.10
2017-09-10T06:47:21.185Z,11.10
2017-09-10T06:49:49.423Z,11.50
2017-09-10T06:52:16.897Z,11.50
2017-09-10T06:54:44.386Z,11.80
2017-09-10T06:57:12.634Z,12.00
2017-09-10T06:59:40.134Z,12.00
2017-09-10T07:02:07.619Z,12.10
2017-09-10T07:04:35.920Z,12.20
2017-09-10T07:07:03.408Z,12.10
2017-09-10T07:09:31.687Z,12.40
2017-09-10T07:11:59.961Z,12.00
2017-09-10T07:14:27.429Z,12.00
2017-09-10T07:16:55.660Z,11.50
2017-09-10T07:19:23.167Z,11.50
2017-09-10T07:21:50.672Z,11.70
2017-09-10T07:24:18.169Z,11.70
2017-09-10T07:26:46.396Z,11.90
2017-09-10T07:29:13.893Z,11.90
2017-09-10T07:31:41.411Z,12.10
2017-09-10T07:34:08.930Z,11.90
2017-09-10T07:36:37.199Z,11.80
2017-09-10T07:39:05.451Z,11.90
2017-09-10T07:41:32.966Z,11.90
2017-09-10T07:44:00.454Z,12.30
2017-09-10T07:46:27.915Z,12.30
2017-09-10T07:48:56.179Z,12.20
2017-09-10T07:51:23.656Z,12.20
2017-09-10T07:53:51.163Z,12.30
2017-09-10T07:56:18.676Z,11.80
2017-09-10T07:58:46.139Z,11.80
2017-09-10T08:01:13.655Z,11.80
2017-09-10T08:03:41.136Z,12.00
2017-09-10T08:06:08.657Z,12.40
2017-09-10T08:08:36.161Z,12.30
2017-09-10T08:11:03.644Z,12.50
2017-09-10T08:13:31.914Z,12.20
2017-09-10T08:15:59.420Z,12.20
2017-09-10T08:18:26.918Z,12.20
2017-09-10T08:20:54.409Z,12.00
2017-09-10T08:23:21.914Z,11.80
2017-09-10T08:25:49.424Z,11.90
2017-09-10T08:28:17.681Z,11.90
2017-09-10T08:30:45.154Z,11.90
2017-09-10T08:33:13.421Z,11.80
2017-09-10T08:35:40.906Z,11.70
2017-09-10T08:38:08.412Z,11.60
2017-09-10T08:40:35.887Z,11.60
2017-09-10T08:43:03.427Z,11.70
2017-09-10T08:45:30.940Z,12.00
2017-09-10T08:47:59.232Z,11.70
2017-09-10T08:50:26.723Z,11.70
2017-09-10T08:52:54.200Z,12.10
2017-09-10T08:55:21.717Z,11.70
2017-09-10T08:57:49.180Z,11.70
2017-09-10T09:00:16.667Z,11.50
2017-09-10T09:02:44.183Z,11.50
2017-09-10T09:05:11.676Z,11.50
2017-09-10T09:07:39.134Z,11.60
2017-09-10T09:10:06.647Z,11.60
2017-09-10T09:12:34.148Z,11.60
2017-09-10T09:15:01.648Z,11.60
2017-09-10T09:17:29.886Z,11.50
2017-09-10T09:19:57.350Z,11.50
2017-09-10T09:22:24.837Z,11.60
2017-09-10T09:24:52.323Z,11.60
2017-09-10T09:27:20.637Z,11.60
2017-09-10T09:29:48.137Z,11.60
2017-09-10T09:32:15.627Z,11.70
2017-09-10T09:34:43.107Z,11.70
2017-09-10T09:37:10.583Z,11.80
2017-09-10T09:39:38.096Z,11.90
2017-09-10T09:42:05.592Z,11.90
2017-09-10T09:44:33.085Z,11.90
2017-09-10T09:47:00.563Z,12.00
2017-09-10T09:49:28.070Z,12.00
2017-09-10T09:51:55.542Z,12.00
2017-09-10T09:54:23.019Z,11.90
2017-09-10T09:56:51.084Z,11.90
2017-09-10T09:59:18.568Z,12.00
2017-09-10T10:01:46.027Z,12.00
2017-09-10T10:04:13.572Z,12.00
2017-09-10T10:06:41.824Z,12.20
2017-09-10T10:09:09.289Z,12.20
2017-09-10T10:11:36.776Z,12.40
2017-09-10T10:14:05.004Z,12.60
2017-09-10T10:16:32.516Z,12.50
2017-09-10T10:19:00.779Z,12.70
2017-09-10T10:21:29.028Z,12.60
2017-09-10T10:23:56.539Z,12.60
2017-09-10T10:26:24.031Z,12.60
2017-09-10T10:28:52.142Z,12.50
2017-09-10T10:31:20.469Z,12.60
2017-09-10T10:33:47.963Z,12.50
2017-09-10T10:36:15.477Z,12.70
2017-09-10T10:38:42.960Z,12.70
2017-09-10T10:41:10.476Z,12.80
2017-09-10T10:43:38.737Z,12.80
2017-09-10T10:46:07.023Z,12.70
2017-09-10T10:48:35.246Z,12.90
2017-09-10T10:51:02.723Z,12.90
2017-09-10T10:53:30.248Z,13.00
2017-09-10T10:55:57.711Z,13.30
2017-09-10T10:58:26.423Z,13.20
2017-09-10T11:00:53.910Z,13.30
2017-09-10T11:03:21.442Z,13.40
2017-09-10T11:05:48.930Z,13.40
2017-09-10T11:08:17.205Z,13.60
2017-09-10T11:10:44.689Z,13.60
2017-09-10T11:13:12.208Z,13.60
2017-09-10T11:15:39.730Z,13.90
2017-09-10T11:18:07.219Z,14.10
2017-09-10T11:20:34.728Z,14.10
2017-09-10T11:23:02.232Z,14.20
2017-09-10T11:25:29.724Z,13.90
2017-09-10T11:27:58.044Z,13.70
2017-09-10T11:30:25.606Z,13.70
2017-09-10T11:32:53.090Z,14.00
2017-09-10T11:35:20.589Z,14.00
2017-09-10T11:37:48.060Z,14.00
2017-09-10T11:40:15.572Z,14.00
2017-09-10T11:42:43.051Z,14.20
2017-09-10T11:45:10.523Z,14.30
2017-09-10T11:47:38.789Z,14.40
2017-09-10T11:50:07.036Z,14.70
2017-09-10T11:52:34.520Z,14.70
2017-09-10T11:55:02.035Z,14.70
2017-09-10T11:57:29.523Z,14.70
2017-09-10T11:59:56.999Z,15.00
2017-09-10T12:02:25.237Z,15.00
2017-09-10T12:04:52.742Z,14.90
2017-09-10T12:07:20.992Z,15.10
2017-09-10T12:09:48.488Z,15.10
2017-09-10T12:12:15.980Z,14.90
2017-09-10T12:14:43.500Z,15.10
2017-09-10T12:17:11.729Z,15.00
2017-09-10T12:19:39.223Z,15.00
2017-09-10T12:22:07.488Z,14.90
2017-09-10T12:24:34.963Z,14.90
2017-09-10T12:27:03.214Z,15.10
2017-09-10T12:29:30.682Z,15.00
2017-09-10T12:31:58.188Z,15.30
2017-09-10T12:34:25.698Z,15.30
2017-09-10T12:36:53.172Z,15.40
2017-09-10T12:39:21.452Z,15.90
2017-09-10T12:41:49.700Z,15.70
2017-09-10T12:44:17.185Z,15.70
2017-09-10T12:46:45.432Z,16.10
2017-09-10T12:49:12.940Z,16.00
2017-09-10T12:51:40.461Z,16.00
2017-09-10T12:54:07.931Z,15.70
2017-09-10T12:56:36.162Z,15.90
2017-09-10T12:59:03.665Z,15.90
2017-09-10T13:01:31.143Z,15.70
2017-09-10T13:03:58.683Z,15.40
2017-09-10T13:06:26.148Z,15.40
2017-09-10T13:08:54.381Z,15.60
2017-09-10T13:11:21.878Z,15.60
2017-09-10T13:13:49.346Z,15.50
2017-09-10T13:16:17.610Z,15.60
2017-09-10T13:18:45.856Z,15.70
2017-09-10T13:21:13.350Z,15.60
2017-09-10T13:23:41.580Z,15.80
2017-09-10T13:26:09.089Z,15.70
2017-09-10T13:28:37.320Z,15.60
2017-09-10T13:31:04.815Z,15.50
2017-09-10T13:33:33.045Z,16.20
2017-09-10T13:36:00.512Z,16.20
2017-09-10T13:38:28.020Z,16.50
2017-09-10T13:40:56.259Z,16.40
2017-09-10T13:43:23.769Z,16.30
2017-09-10T13:45:52.005Z,15.80
2017-09-10T13:48:19.513Z,15.80
2017-09-10T13:50:46.990Z,15.80
2017-09-10T13:53:14.535Z,16.00
2017-09-10T13:55:42.006Z,16.20
2017-09-10T13:58:09.502Z,16.50
2017-09-10T14:00:36.998Z,16.60
2017-09-10T14:03:04.536Z,16.70
2017-09-10T14:05:32.795Z,17.00
2017-09-10T14:08:00.287Z,16.90
2017-09-10T14:10:28.547Z,16.40
2017-09-10T14:12:56.788Z,16.10
2017-09-10T14:15:24.311Z,16.10
2017-09-10T14:17:51.793Z,16.20
2017-09-10T14:20:19.288Z,16.50
2017-09-10T14:22:46.751Z,16.50
2017-09-10T14:25:14.277Z,16.40
2017-09-10T14:27:41.779Z,16.20
2017-09-10T14:30:09.235Z,16.50
2017-09-10T14:32:37.463Z,16.50
2017-09-10T14:35:05.063Z,16.50
2017-09-10T14:37:32.559Z,16.50
2017-09-10T14:40:00.076Z,16.70
2017-09-10T14:42:27.547Z,16.70
2017-09-10T14:44:55.007Z,16.90
2017-09-10T14:47:23.287Z,16.20
2017-09-10T14:49:51.650Z,16.10
2017-09-10T14:52:19.171Z,16.40
2017-09-10T14:54:46.639Z,16.60
2017-09-10T14:57:14.171Z,16.90
2017-09-10T14:59:41.656Z,16.40
2017-09-10T15:02:09.127Z,16.20
2017-09-10T15:04:36.644Z,15.90
2017-09-10T15:07:04.109Z,16.00
2017-09-10T15:09:31.578Z,16.40
2017-09-10T15:11:59.056Z,16.50
2017-09-10T15:14:26.578Z,16.50
2017-09-10T15:16:54.091Z,16.40
2017-09-10T15:19:21.590Z,16.90
2017-09-10T15:21:49.122Z,16.90
2017-09-10T15:24:16.605Z,16.60
2017-09-10T15:26:44.840Z,16.40
2017-09-10T15:29:12.330Z,16.40
2017-09-10T15:31:39.797Z,16.20
2017-09-10T15:34:07.310Z,16.00
2017-09-10T15:36:34.787Z,16.10
2017-09-10T15:39:03.078Z,16.30
2017-09-10T15:41:31.310Z,16.40
2017-09-10T15:43:58.783Z,16.40
2017-09-10T15:46:26.283Z,16.30
2017-09-10T15:48:53.772Z,16.70
2017-09-10T15:51:21.267Z,16.50
2017-09-10T15:53:48.763Z,16.70
2017-09-10T15:56:16.261Z,16.80
2017-09-10T15:58:43.740Z,16.90
2017-09-10T16:01:11.195Z,17.00
2017-09-10T16:03:38.689Z,16.90
2017-09-10T16:06:06.936Z,17.00
2017-09-10T16:08:34.410Z,17.00
2017-09-10T16:11:02.648Z,16.70
2017-09-10T16:13:30.140Z,16.70
2017-09-10T16:15:58.394Z,16.40
2017-09-10T16:18:25.870Z,16.40
2017-09-10T16:20:53.389Z,16.30
2017-09-10T16:23:20.855Z,16.20
2017-09-10T16:25:48.331Z,16.30
2017-09-10T16:28:15.818Z,16.10
2017-09-10T16:30:44.058Z,15.80
2017-09-10T16:33:11.561Z,15.80
2017-09-10T16:35:39.811Z,15.70
2017-09-10T16:38:07.306Z,15.70
2017-09-10T16:40:34.801Z,15.60
2017-09-10T16:43:02.280Z,15.50
2017-09-10T16:45:29.797Z,15.50
2017-09-10T16:47:57.298Z,15.40
2017-09-10T16:50:24.780Z,15.30
2017-09-10T16:52:53.059Z,15.20
2017-09-10T16:55:21.323Z,15.10
2017-09-10T16:57:49.595Z,15.00
2017-09-10T17:00:17.761Z,15.00
2017-09-10T17:02:45.287Z,15.00
2017-09-10T17:05:12.747Z,15.00
2017-09-10T17:07:40.239Z,14.80
2017-09-10T17:10:07.748Z,14.70
2017-09-10T17:12:35.210Z,14.70
2017-09-10T17:15:02.712Z,14.60
2017-09-10T17:17:30.221Z,14.60
2017-09-10T17:19:57.719Z,14.60
2017-09-10T17:22:25.227Z,14.50
2017-09-10T17:24:53.488Z,14.50
2017-09-10T17:27:21.722Z,14.50
2017-09-10T17:29:49.214Z,14.50
2017-09-10T17:32:17.502Z,14.20
2017-09-10T17:34:45.735Z,14.00
2017-09-10T17:37:13.220Z,14.00
2017-09-10T17:39:40.710Z,14.00
2017-09-10T17:42:08.999Z,14.10
2017-09-10T17:44:36.450Z,14.10
2017-09-10T17:47:03.924Z,14.00
2017-09-10T17:49:31.459Z,13.80
2017-09-10T17:51:59.701Z,13.30
2017-09-10T17:54:27.159Z,13.30
2017-09-10T17:56:55.448Z,13.10
2017-09-10T17:59:22.959Z,13.10
2017-09-10T18:01:50.419Z,13.00
2017-09-10T18:04:17.907Z,13.00
2017-09-10T18:06:45.402Z,13.00
2017-09-10T18:09:13.619Z,13.20
2017-09-10T18:11:41.115Z,13.20
2017-09-10T18:14:08.631Z,13.10
2017-09-10T18:16:36.119Z,13.00
2017-09-10T18:19:03.606Z,13.10
2017-09-10T18:21:31.830Z,13.20
2017-09-10T18:23:59.315Z,13.10
2017-09-10T18:26:26.812Z,13.00
2017-09-10T18:28:55.108Z,12.80
2017-09-10T18:31:22.592Z,12.80
2017-09-10T18:33:50.140Z,12.60
2017-09-10T18:36:17.615Z,12.60
2017-09-10T18:38:45.098Z,12.70
2017-09-10T18:41:13.348Z,12.60
2017-09-10T18:43:40.834Z,12.70
2017-09-10T18:46:08.354Z,12.70
2017-09-10T18:48:35.812Z,12.30
2017-09-10T18:51:03.301Z,12.40
2017-09-10T18:53:30.808Z,12.50
2017-09-10T18:55:58.271Z,12.30
2017-09-10T18:58:25.785Z,12.10
2017-09-10T19:00:53.255Z,12.20
2017-09-10T19:03:21.527Z,12.10
2017-09-10T19:05:49.805Z,12.10
2017-09-10T19:08:18.050Z,12.00
2017-09-10T19:10:45.577Z,12.00
2017-09-10T19:13:13.039Z,12.10
2017-09-10T19:15:40.504Z,12.00
2017-09-10T19:18:08.032Z,12.10
2017-09-10T19:20:35.519Z,12.00
2017-09-10T19:23:03.016Z,12.00
2017-09-10T19:25:30.508Z,12.00
2017-09-10T19:27:58.728Z,11.90
2017-09-10T19:30:26.243Z,11.90
2017-09-10T19:32:53.728Z,11.90
2017-09-10T19:35:21.231Z,11.90
2017-09-10T19:37:48.691Z,11.80
2017-09-10T19:40:16.187Z,11.80
2017-09-10T19:42:43.688Z,11.80
2017-09-10T19:45:11.178Z,11.80
2017-09-10T19:47:38.669Z,11.70
2017-09-10T19:50:06.213Z,11.80
2017-09-10T19:52:34.483Z,11.60
2017-09-10T19:55:02.758Z,11.50
2017-09-10T19:57:30.349Z,11.50
2017-09-10T19:59:57.829Z,11.60
2017-09-10T20:02:25.369Z,11.80
2017-09-10T20:04:52.834Z,11.70
2017-09-10T20:07:20.351Z,11.60
2017-09-10T20:09:48.591Z,11.50
2017-09-10T20:12:16.096Z,11.50
2017-09-10T20:14:43.612Z,11.50
2017-09-10T20:17:11.109Z,11.60
2017-09-10T20:19:39.363Z,11.50
2017-09-10T20:22:06.864Z,11.50
2017-09-10T20:24:34.351Z,11.40
2017-09-10T20:27:01.844Z,11.40
2017-09-10T20:29:30.073Z,11.40
2017-09-10T20:31:57.594Z,11.40
2017-09-10T20:34:25.851Z,11.30
2017-09-10T20:36:53.336Z,11.30
2017-09-10T20:39:20.864Z,11.30
2017-09-10T20:41:48.360Z,11.20
2017-09-10T20:44:16.105Z,11.10
2017-09-10T20:46:43.686Z,11.10
2017-09-10T20:49:11.181Z,11.20
2017-09-10T20:51:38.675Z,11.20
2017-09-10T20:54:06.275Z,10.70
2017-09-10T20:56:33.744Z,10.60
2017-09-10T20:59:01.223Z,10.70
2017-09-10T21:01:28.723Z,10.50
2017-09-10T21:03:57.007Z,10.80
2017-09-10T21:06:25.278Z,10.60
2017-09-10T21:08:53.542Z,10.50
2017-09-10T21:11:21.780Z,10.80
2017-09-10T21:13:49.290Z,10.70
2017-09-10T21:16:17.578Z,10.20
2017-09-10T21:18:45.143Z,10.20
2017-09-10T21:21:12.649Z,10.40
2017-09-10T21:23:40.107Z,10.50
2017-09-10T21:26:07.611Z,10.20
2017-09-10T21:28:35.133Z,10.20
2017-09-10T21:31:02.599Z,10.30
2017-09-10T21:33:30.096Z,10.20
2017-09-10T21:35:58.331Z,10.30
2017-09-10T21:38:25.836Z,10.30
2017-09-10T21:40:53.312Z,10.40
2017-09-10T21:43:20.812Z,10.30
2017-09-10T21:45:48.304Z,10.30
2017-09-10T21:48:16.556Z,10.30
2017-09-10T21:50:44.048Z,10.30
2017-09-10T21:53:11.517Z,10.20
2017-09-10T21:55:39.007Z,10.10
2017-09-10T21:58:06.474Z,10.30
2017-09-10T22:00:33.965Z,10.30
2017-09-10T22:03:02.248Z,10.20
2017-09-10T22:05:30.505Z,10.20
2017-09-10T22:07:58.842Z,10.20
2017-09-10T22:10:26.351Z,10.10
2017-09-10T22:12:53.843Z,10.20
2017-09-10T22:15:21.316Z,10.20
2017-09-10T22:17:48.804Z,10.10
2017-09-10T22:20:16.330Z,10.10
2017-09-10T22:22:43.787Z,10.10
2017-09-10T22:25:11.274Z,10.10
2017-09-10T22:27:38.784Z,10.00
2017-09-10T22:30:06.260Z,10.00
2017-09-10T22:32:33.760Z,10.00
2017-09-10T22:35:01.256Z,9.80
2017-09-10T22:37:28.707Z,9.70
2017-09-10T22:39:56.217Z,9.50
2017-09-10T22:42:23.700Z,9.40
2017-09-10T22:44:51.187Z,9.60
2017-09-10T22:47:18.639Z,9.40
2017-09-10T22:49:46.105Z,9.60
2017-09-10T22:52:13.587Z,9.30
2017-09-10T22:54:41.070Z,9.20
2017-09-10T22:57:08.571Z,9.30
2017-09-10T22:59:36.032Z,9.00
2017-09-10T23:02:03.533Z,9.20
2017-09-10T23:04:31.002Z,9.30
2017-09-10T23:06:58.516Z,9.40
2017-09-10T23:09:26.759Z,9.10
2017-09-10T23:11:54.207Z,9.10
2017-09-10T23:14:21.698Z,9.00
2017-09-10T23:16:49.946Z,9.10
2017-09-10T23:19:17.436Z,9.10
2017-09-10T23:21:44.901Z,9.20
2017-09-10T23:24:12.408Z,9.30
2017-09-10T23:26:39.900Z,9.30
2017-09-10T23:29:07.359Z,9.30
2017-09-10T23:31:35.678Z,9.40
2017-09-10T23:34:03.154Z,9.40
2017-09-10T23:36:30.625Z,9.30
2017-09-10T23:38:58.103Z,9.30
2017-09-10T23:41:26.329Z,8.90
2017-09-10T23:43:53.819Z,8.90
2017-09-10T23:46:21.279Z,9.10
2017-09-10T23:48:48.770Z,9.10
2017-09-10T23:51:17.042Z,9.10
2017-09-10T23:53:45.891Z,9.10
2017-09-10T23:56:13.387Z,9.10
2017-09-10T23:58:41.624Z,9.10
